Time;durP1;ratioP1;P1;durP2;ratioP2;P2;SDS_P1;SDS_P2;PMS_P1;PMS_P2;Temp;Humidity;BMP_temperature;BMP_pressure;BME280_temperature;BME280_humidity;BME280_pressure;Samples;Min_cycle;Max_cycle;Signal;HPM_P1;HPM_P2
2021/12/08 00:00:55;;;;;;;7.33;2.70;;;;;;;2.54;87.25;99432.24;1706916;84;22218;-71
2021/12/08 00:03:23;;;;;;;7.15;2.75;;;;;;;2.55;87.26;99426.56;1706737;82;21004;-70
2021/12/08 00:05:49;;;;;;;13.18;3.10;;;;;;;2.54;87.26;99424.89;1706922;84;21074;-69
2021/12/08 00:08:18;;;;;;;7.85;3.00;;;;;;;2.55;87.29;99426.56;1705596;82;21021;-69
2021/12/08 00:13:18;;;;;;;;;;;;;;;2.55;87.29;99426.09;1709269;84;21837;-69
2021/12/08 00:15:48;;;;;;;4.60;2.45;;;;;;;2.55;87.29;99428.70;1706646;82;20578;-69
2021/12/08 00:18:23;;;;;;;10.08;2.70;;;;;;;2.55;87.32;99426.56;1708933;82;20996;-69
2021/12/08 00:20:54;;;;;;;5.12;3.00;;;;;;;2.53;87.32;99427.13;1707464;83;21032;-69
2021/12/08 00:23:21;;;;;;;5.35;3.25;;;;;;;2.51;87.28;99421.14;1713825;83;21082;-70
2021/12/08 00:25:47;;;;;;;3.37;2.50;;;;;;;2.50;87.31;99418.17;1746959;80;21731;-69
2021/12/08 00:28:14;;;;;;;13.50;3.05;;;;;;;2.53;87.34;99424.05;1709045;83;21495;-68
2021/12/08 00:30:45;;;;;;;6.90;2.90;;;;;;;2.53;87.33;99441.46;1731362;82;21006;-68
2021/12/08 00:33:13;;;;;;;6.78;2.67;;;;;;;2.53;87.33;99443.60;1735169;82;21516;-68
2021/12/08 00:35:45;;;;;;;8.55;2.72;;;;;;;2.54;87.33;99443.97;1735318;82;21080;-68
2021/12/08 00:38:11;;;;;;;4.75;2.50;;;;;;;2.53;87.31;99450.12;1735841;82;22281;-68
2021/12/08 00:40:38;;;;;;;11.80;2.75;;;;;;;2.53;87.35;99453.20;1714831;82;21017;-68
2021/12/08 00:43:07;;;;;;;13.40;2.90;;;;;;;2.40;87.60;99454.84;1714057;83;20949;-69
2021/12/08 00:45:34;;;;;;;7.65;2.70;;;;;;;2.35;87.89;99447.79;1733958;82;20985;-69
2021/12/08 00:48:00;;;;;;;8.88;2.60;;;;;;;2.34;88.02;99450.03;1721211;82;20945;-69
2021/12/08 00:50:30;;;;;;;12.50;2.45;;;;;;;2.35;88.15;99453.84;1702831;83;22156;-70
2021/12/08 00:52:57;;;;;;;5.87;2.42;;;;;;;2.37;88.20;99458.48;1711928;83;21080;-69
2021/12/08 00:55:24;;;;;;;4.92;2.27;;;;;;;2.37;88.23;99455.05;1698063;84;21001;-69
2021/12/08 00:57:52;;;;;;;5.87;2.37;;;;;;;2.36;88.24;99450.77;1685445;82;21016;-69
2021/12/08 01:00:26;;;;;;;18.37;2.60;;;;;;;2.35;88.27;99451.23;1671443;84;20981;-69
2021/12/08 01:02:53;;;;;;;3.08;2.10;;;;;;;2.35;88.30;99448.62;1687131;83;23636;-70
2021/12/08 01:05:23;;;;;;;4.58;2.20;;;;;;;2.54;87.89;99443.97;1700592;84;21037;-69
2021/12/08 01:07:50;;;;;;;2.70;2.08;;;;;;;2.55;87.73;99440.90;1685894;84;21047;-69
2021/12/08 01:10:21;;;;;;;2.77;1.80;;;;;;;2.59;87.67;99452.80;1701754;83;20959;-69
2021/12/08 01:12:48;;;;;;;2.72;1.80;;;;;;;2.58;87.58;99447.22;1699462;84;20962;-69
2021/12/08 01:15:15;;;;;;;4.15;2.02;;;;;;;2.58;87.53;99451.13;1699291;84;21905;-68
2021/12/08 01:17:41;;;;;;;2.92;1.60;;;;;;;2.59;87.49;99460.62;1696644;84;20996;-69
2021/12/08 01:20:10;;;;;;;3.47;2.15;;;;;;;2.61;87.47;99456.64;1695907;83;20975;-69
2021/12/08 01:22:37;;;;;;;2.83;1.70;;;;;;;2.59;87.42;99446.28;1699304;84;20999;-68
2021/12/08 01:25:05;;;;;;;3.00;1.70;;;;;;;2.61;87.42;99449.66;1699576;84;21006;-69
2021/12/08 01:27:33;;;;;;;4.65;1.92;;;;;;;2.60;87.40;99445.34;1699344;83;22507;-69
2021/12/08 01:30:07;;;;;;;3.17;1.75;;;;;;;2.61;87.37;99449.66;1703267;82;21053;-70
2021/12/08 01:32:34;;;;;;;2.77;1.95;;;;;;;2.62;87.39;99441.37;1708596;83;21040;-69
2021/12/08 01:35:01;;;;;;;2.92;1.75;;;;;;;2.62;87.33;99446.58;1718315;83;20978;-69
2021/12/08 01:37:28;;;;;;;2.47;1.70;;;;;;;2.62;87.33;99450.03;1709900;83;20976;-69
2021/12/08 01:39:54;;;;;;;2.90;1.82;;;;;;;2.62;87.37;99447.42;1694515;83;21846;-69
2021/12/08 01:42:30;;;;;;;4.22;2.17;;;;;;;2.63;87.34;99450.39;1707605;82;20984;-69
2021/12/08 01:47:36;;;;;;;3.05;1.82;;;;;;;2.66;87.33;99439.77;1707135;84;21064;-68
2021/12/08 01:50:05;;;;;;;3.85;2.12;;;;;;;2.67;87.30;99440.60;1674076;84;21452;-69
2021/12/08 01:52:32;;;;;;;3.67;1.90;;;;;;;2.66;87.30;99438.93;1707430;82;21853;-69
2021/12/08 01:54:59;;;;;;;4.53;2.47;;;;;;;2.69;87.33;99438.73;1759131;81;20965;-70
2021/12/08 01:57:26;;;;;;;3.92;1.90;;;;;;;2.68;87.31;99435.28;1693128;81;21103;-70
2021/12/08 01:59:52;;;;;;;3.85;2.12;;;;;;;2.68;87.27;99434.45;1681259;85;21370;-69
2021/12/08 02:02:18;;;;;;;5.08;2.10;;;;;;;2.68;87.27;99428.77;1747867;81;21165;-69
2021/12/08 02:04:45;;;;;;;4.83;1.80;;;;;;;2.72;87.32;99432.05;1742737;81;21839;-69
2021/12/08 02:07:12;;;;;;;3.42;2.10;;;;;;;2.71;87.25;99428.60;1719142;81;21007;-70
2021/12/08 02:09:42;;;;;;;2.30;1.60;;;;;;;2.69;87.20;99424.39;1716216;82;21008;-70
2021/12/08 02:12:11;;;;;;;6.97;1.90;;;;;;;2.67;87.19;99419.28;1738105;81;20997;-70
2021/12/08 02:14:39;;;;;;;4.05;1.87;;;;;;;2.64;87.17;99415.56;1709113;84;20987;-69
2021/12/08 02:17:10;;;;;;;3.67;1.92;;;;;;;2.64;87.18;99419.48;1716226;83;21782;-70
2021/12/08 02:19:33;;;;;;;3.27;1.70;;;;;;;2.66;87.20;99411.55;1715334;83;21000;-70
2021/12/08 02:22:00;;;;;;;4.05;1.92;;;;;;;2.66;87.19;99414.16;1710635;83;21091;-69
2021/12/08 02:24:26;;;;;;;3.10;1.72;;;;;;;2.66;87.13;99420.21;1716007;83;20952;-70
2021/12/08 02:26:54;;;;;;;3.83;1.47;;;;;;;2.67;87.15;99417.14;1691997;82;20977;-70
2021/12/08 02:29:33;;;;;;;3.75;1.70;;;;;;;2.66;87.13;99405.87;1711522;83;22219;-70
2021/12/08 02:32:07;;;;;;;3.42;1.60;;;;;;;2.65;87.07;99407.28;1709889;83;21532;-69
2021/12/08 02:48:11;;;;;;;4.95;2.50;;;;;;;2.60;87.04;99402.33;1709123;83;21412;-69
2021/12/08 02:50:40;;;;;;;4.20;2.33;;;;;;;2.61;87.02;99396.22;1709840;83;21367;-69
2021/12/08 02:53:07;;;;;;;4.83;2.30;;;;;;;2.59;86.98;99391.06;1711745;83;20932;-70
2021/12/08 02:55:35;;;;;;;4.60;1.90;;;;;;;2.57;86.97;99385.59;1723852;82;22653;-70
2021/12/08 02:58:02;;;;;;;5.20;1.90;;;;;;;2.58;87.01;99383.34;1714698;83;20953;-69
2021/12/08 03:00:34;;;;;;;5.30;2.02;;;;;;;2.61;86.98;99379.73;1718506;81;21547;-69
2021/12/08 03:03:01;;;;;;;6.33;2.42;;;;;;;2.56;86.92;99377.41;1714718;83;21030;-69
2021/12/08 03:05:29;;;;;;;4.70;2.00;;;;;;;2.53;86.87;99360.19;1714434;83;21003;-69
2021/12/08 03:07:56;;;;;;;4.33;1.90;;;;;;;2.52;86.91;99361.13;1715259;83;21811;-69
2021/12/08 03:10:27;;;;;;;3.52;1.82;;;;;;;2.53;86.91;99356.75;1715797;83;21020;-69
2021/12/08 03:12:55;;;;;;;5.37;2.33;;;;;;;2.50;86.90;99351.23;1691775;82;21020;-69
2021/12/08 03:15:21;;;;;;;5.50;2.12;;;;;;;2.49;86.92;99355.25;1683588;85;21430;-69
2021/12/08 03:17:48;;;;;;;3.62;2.05;;;;;;;2.50;86.97;99360.36;1709214;81;20867;-69
2021/12/08 03:20:21;;;;;;;8.70;1.70;;;;;;;2.54;86.99;99363.63;1654468;86;21839;-69
2021/12/08 03:22:48;;;;;;;4.35;1.90;;;;;;;2.52;86.92;99366.34;1685221;84;20886;-69
2021/12/08 03:25:18;;;;;;;4.37;1.98;;;;;;;2.52;86.95;99380.67;1674988;85;21517;-69
2021/12/08 03:28:03;;;;;;;6.35;1.98;;;;;;;2.52;86.94;99379.84;1674915;85;21053;-69
2021/12/08 03:30:26;;;;;;;5.45;1.80;;;;;;;2.50;86.95;99395.55;1700200;82;20964;-69
2021/12/08 03:32:45;;;;;;;8.43;1.95;;;;;;;2.52;86.99;99393.70;1690903;83;22515;-70
2021/12/08 03:35:16;;;;;;;5.72;2.00;;;;;;;2.52;86.96;99400.23;1739049;81;21065;-69
2021/12/08 03:37:45;;;;;;;5.40;1.98;;;;;;;2.50;86.96;99391.64;1717123;82;21009;-69
2021/12/08 03:40:19;;;;;;;3.05;1.62;;;;;;;2.49;86.98;99376.94;1731996;82;20996;-70
2021/12/08 03:42:47;;;;;;;5.72;2.20;;;;;;;2.49;87.02;99374.33;1732534;82;21441;-70
2021/12/08 03:45:19;;;;;;;4.60;1.77;;;;;;;2.49;87.03;99378.70;1715648;82;21770;-70
2021/12/08 03:47:47;;;;;;;5.33;1.90;;;;;;;2.49;87.06;99387.36;1715178;83;20957;-69
2021/12/08 03:50:17;;;;;;;5.22;1.80;;;;;;;2.49;87.05;99393.05;1718346;81;21472;-70
2021/12/08 03:52:43;;;;;;;7.62;1.72;;;;;;;2.49;87.09;99374.33;1689276;85;21007;-69
2021/12/08 03:55:13;;;;;;;5.60;2.02;;;;;;;2.51;87.13;99376.41;1725319;82;21574;-69
2021/12/08 03:57:41;;;;;;;5.40;1.70;;;;;;;2.54;87.17;99373.59;1716844;81;21824;-69
2021/12/08 04:00:12;;;;;;;7.00;2.10;;;;;;;2.57;87.21;99368.64;1732040;82;21432;-70
2021/12/08 04:02:40;;;;;;;6.67;2.10;;;;;;;2.64;87.30;99389.97;1675550;85;21030;-69
2021/12/08 04:05:07;;;;;;;13.70;2.10;;;;;;;2.64;87.30;99389.97;1667252;85;21338;-69
2021/12/08 04:07:42;;;;;;;8.05;2.17;;;;;;;2.65;87.24;99395.08;1661701;85;21086;-69
2021/12/08 04:10:06;;;;;;;10.40;2.65;;;;;;;2.69;87.24;99410.05;1735481;82;22311;-69
2021/12/08 04:12:34;;;;;;;13.93;2.60;;;;;;;2.72;87.26;99423.75;1733180;82;20985;-70
2021/12/08 04:15:04;;;;;;;6.83;2.80;;;;;;;2.74;87.22;99427.56;1721981;82;21092;-68
2021/12/08 04:17:35;;;;;;;10.68;2.52;;;;;;;2.75;87.23;99421.41;1653590;86;21105;-68
2021/12/08 04:20:11;;;;;;;10.50;3.02;;;;;;;2.77;87.29;99428.20;1698329;83;21033;-68
2021/12/08 04:22:41;;;;;;;11.40;2.37;;;;;;;2.81;87.30;99425.79;1713110;83;21847;-68
2021/12/08 04:25:11;;;;;;;11.18;2.70;;;;;;;2.83;87.28;99413.48;1700459;83;21001;-69
2021/12/08 04:27:40;;;;;;;31.20;2.62;;;;;;;2.83;87.22;99396.53;1711896;83;21409;-68
2021/12/08 04:30:11;;;;;;;11.12;2.62;;;;;;;2.82;87.22;99389.65;1702484;83;21151;-68
2021/12/08 04:32:38;;;;;;;12.68;3.12;;;;;;;2.81;87.21;99390.59;1673797;85;21081;-69
2021/12/08 04:35:09;;;;;;;18.20;2.92;;;;;;;2.83;87.24;99387.41;1680834;85;22591;-69
2021/12/08 04:37:38;;;;;;;13.25;2.98;;;;;;;2.85;87.25;99382.09;1682976;84;20945;-69
2021/12/08 04:40:23;;;;;;;20.02;3.02;;;;;;;2.84;87.22;99394.30;1670773;84;21032;-69
2021/12/08 04:45:16;;;;;;;12.07;3.40;;;;;;;2.84;87.23;99404.72;1684332;84;21412;-68
2021/12/08 04:48:02;;;;;;;18.35;3.45;;;;;;;2.86;87.28;99402.84;1679907;84;22678;-69
2021/12/08 04:50:47;;;;;;;23.70;3.65;;;;;;;2.87;87.27;99403.22;1668317;85;20990;-69
2021/12/08 04:53:13;;;;;;;10.23;3.45;;;;;;;2.91;87.31;99401.73;1682712;84;21012;-68
2021/12/08 05:01:23;;;;;;;28.12;3.65;;;;;;;2.90;87.25;99389.64;1719986;82;21866;-69
2021/12/08 05:04:09;;;;;;;12.98;3.02;;;;;;;2.88;87.26;99387.10;1721412;81;21527;-69
2021/12/08 05:06:38;;;;;;;8.78;3.15;;;;;;;2.87;87.25;99386.27;1732832;81;20985;-68
2021/12/08 05:08:55;;;;;;;15.15;3.08;;;;;;;2.86;87.28;99378.55;1747048;81;21592;-68
2021/12/08 05:11:32;;;;;;;9.80;3.20;;;;;;;2.85;87.29;99379.02;1751777;81;21343;-69
2021/12/08 05:14:04;;;;;;;9.65;2.83;;;;;;;2.86;87.32;99371.55;1752733;81;21779;-71
2021/12/08 05:16:31;;;;;;;14.30;3.42;;;;;;;2.86;87.29;99370.72;1752564;80;21023;-71
2021/12/08 05:18:59;;;;;;;14.68;3.52;;;;;;;2.85;87.31;99376.41;1742384;81;21016;-70
2021/12/08 05:21:49;;;;;;;12.40;3.12;;;;;;;2.86;87.32;99379.38;1708009;82;21044;-69
2021/12/08 05:24:21;;;;;;;15.72;3.30;;;;;;;2.87;87.33;99376.30;1728720;82;21044;-70
2021/12/08 05:27:05;;;;;;;11.97;3.70;;;;;;;2.86;87.31;99379.38;1731530;81;21456;-71
2021/12/08 05:29:37;;;;;;;13.28;3.90;;;;;;;2.85;87.33;99390.75;1713310;81;21024;-70
2021/12/08 05:32:05;;;;;;;16.95;3.92;;;;;;;2.85;87.32;99389.91;1720757;82;21150;-69
2021/12/08 05:34:34;;;;;;;11.20;3.52;;;;;;;2.86;87.36;99383.76;1707236;82;21384;-69
2021/12/08 05:37:01;;;;;;;9.58;3.27;;;;;;;2.86;87.38;99375.94;1729696;82;21048;-69
2021/12/08 05:39:29;;;;;;;16.37;3.92;;;;;;;2.85;87.38;99372.49;1709277;81;21832;-69
2021/12/08 05:42:03;;;;;;;26.05;4.30;;;;;;;2.83;87.41;99365.23;1699282;83;21071;-69
2021/12/08 05:44:30;;;;;;;21.37;4.67;;;;;;;2.83;87.41;99370.92;1724787;82;21125;-70
2021/12/08 05:46:59;;;;;;;23.20;4.20;;;;;;;2.86;87.49;99362.89;1720030;83;21440;-69
2021/12/08 05:49:26;;;;;;;17.57;4.30;;;;;;;2.90;87.51;99373.52;1720139;81;20935;-69
2021/12/08 05:51:53;;;;;;;10.05;3.90;;;;;;;2.92;87.55;99366.89;1724666;81;21862;-71
2021/12/08 05:54:32;;;;;;;16.27;4.90;;;;;;;2.93;87.57;99371.17;1737147;82;21034;-68
2021/12/08 05:57:10;;;;;;;10.75;4.85;;;;;;;2.94;87.60;99389.33;1745847;82;21004;-69
2021/12/08 05:59:38;;;;;;;18.77;5.30;;;;;;;2.96;87.60;99394.44;1746351;82;20960;-68
2021/12/08 06:02:12;;;;;;;16.40;5.30;;;;;;;2.98;87.62;99400.39;1756067;81;21010;-68
2021/12/08 06:04:41;;;;;;;27.15;5.62;;;;;;;2.99;87.64;99401.63;1745388;82;21763;-68
2021/12/08 06:07:09;;;;;;;15.50;5.65;;;;;;;3.00;87.68;99403.77;1732572;82;21035;-68
2021/12/08 06:09:36;;;;;;;19.77;6.12;;;;;;;3.00;87.68;99395.47;1710993;82;21107;-68
2021/12/08 06:12:05;;;;;;;23.35;6.42;;;;;;;3.02;87.70;99387.55;1714815;83;21035;-68
2021/12/08 06:14:32;;;;;;;16.57;6.50;;;;;;;3.03;87.75;99395.27;1711343;83;21019;-68
2021/12/08 06:17:07;;;;;;;26.42;6.55;;;;;;;3.06;87.76;99396.83;1713436;83;22535;-68
2021/12/08 06:19:36;;;;;;;23.18;7.20;;;;;;;3.08;87.77;99401.48;1712485;83;21035;-68
2021/12/08 06:22:04;;;;;;;26.40;8.08;;;;;;;3.09;87.79;99404.02;1713281;83;21092;-69
2021/12/08 06:24:31;;;;;;;24.60;7.83;;;;;;;3.12;87.80;99414.72;1697793;81;21060;-69
2021/12/08 06:26:59;;;;;;;25.62;8.53;;;;;;;3.14;87.83;99415.45;1723681;82;21043;-69
2021/12/08 06:29:25;;;;;;;45.15;9.35;;;;;;;3.15;87.85;99414.51;1719120;82;21828;-69
2021/12/08 06:31:57;;;;;;;21.30;8.10;;;;;;;3.18;87.87;99420.83;1714597;83;21562;-68
2021/12/08 06:34:24;;;;;;;31.42;7.50;;;;;;;3.17;87.89;99416.55;1686313;85;21494;-68
2021/12/08 06:37:05;;;;;;;32.28;7.50;;;;;;;3.19;87.92;99412.56;1697187;83;21027;-68
2021/12/08 06:39:52;;;;;;;37.33;8.18;;;;;;;3.21;87.95;99407.60;1678122;85;21041;-68
2021/12/08 06:42:23;;;;;;;39.45;13.43;;;;;;;3.23;87.99;99410.95;1709155;81;22549;-67
2021/12/08 06:44:51;;;;;;;41.75;17.48;;;;;;;3.25;88.01;99416.89;1668375;85;21091;-68
2021/12/08 06:47:22;;;;;;;54.35;17.77;;;;;;;3.27;88.05;99404.58;1685202;82;21031;-68
2021/12/08 06:49:51;;;;;;;49.50;21.60;;;;;;;3.28;88.06;99389.31;1746069;82;21003;-68
2021/12/08 06:52:21;;;;;;;57.55;16.75;;;;;;;3.30;88.09;99388.73;1746066;82;21035;-68
2021/12/08 06:54:56;;;;;;;52.00;14.40;;;;;;;3.34;88.13;99380.23;1738316;81;21880;-69
2021/12/08 06:57:29;;;;;;;34.35;12.43;;;;;;;3.36;88.14;99381.80;1717884;82;21007;-68
2021/12/08 07:00:13;;;;;;;31.23;14.18;;;;;;;3.37;88.16;99380.85;1748146;82;21039;-69
2021/12/08 07:05:35;;;;;;;47.83;16.35;;;;;;;3.42;88.23;99363.13;1670561;84;21063;-69
2021/12/08 07:08:05;;;;;;;51.25;16.12;;;;;;;3.41;88.31;99364.08;1717570;82;21836;-68
2021/12/08 07:10:40;;;;;;;37.93;17.77;;;;;;;3.40;88.35;99359.79;1725976;82;21467;-69
2021/12/08 07:13:11;;;;;;;50.88;19.30;;;;;;;3.44;88.38;99370.86;1735723;82;20968;-69
2021/12/08 07:15:50;;;;;;;42.62;18.80;;;;;;;3.48;88.45;99363.67;1720970;82;20991;-69
2021/12/08 07:18:28;;;;;;;25.57;15.75;;;;;;;3.50;88.46;99374.84;1759592;81;21018;-71
2021/12/08 07:20:59;;;;;;;36.90;20.52;;;;;;;3.52;88.50;99369.89;1761237;81;22411;-70
2021/12/08 07:23:36;;;;;;;32.60;16.80;;;;;;;3.53;88.51;99374.64;1742550;80;20861;-69
2021/12/08 07:26:01;;;;;;;31.73;15.20;;;;;;;3.55;88.54;99374.06;1742333;81;21025;-71
2021/12/08 07:28:29;;;;;;;37.17;16.60;;;;;;;3.53;88.58;99370.25;1727239;82;20982;-71
2021/12/08 07:31:01;;;;;;;35.03;17.75;;;;;;;3.55;88.57;99382.73;1741379;81;20996;-71
2021/12/08 07:33:28;;;;;;;37.50;18.17;;;;;;;3.57;88.65;99378.27;1714543;80;21799;-71
2021/12/08 07:35:57;;;;;;;41.75;20.37;;;;;;;3.59;88.64;99373.77;1722963;82;21446;-69
2021/12/08 07:38:26;;;;;;;38.25;17.80;;;;;;;3.61;88.66;99384.11;1742480;82;21011;-74
2021/12/08 07:41:05;;;;;;;26.65;16.50;;;;;;;3.63;88.69;99383.06;1731985;82;21071;-75
2021/12/08 07:43:29;;;;;;;44.23;19.10;;;;;;;3.65;88.73;99379.03;1736532;81;21059;-76
2021/12/08 07:46:06;;;;;;;41.73;20.60;;;;;;;3.66;88.74;99380.70;1756462;81;21871;-74
2021/12/08 07:48:49;;;;;;;40.90;21.40;;;;;;;3.68;88.77;99381.46;1753232;80;21452;-74
2021/12/08 07:51:24;;;;;;;41.45;20.65;;;;;;;3.71;88.76;99385.16;1741027;82;21038;-74
2021/12/08 07:53:52;;;;;;;49.93;20.32;;;;;;;3.71;88.80;99392.53;1737443;82;21027;-74
2021/12/08 07:56:20;;;;;;;22.35;14.03;;;;;;;3.74;88.81;99388.39;1749367;81;20952;-69
2021/12/08 07:58:51;;;;;;;55.25;17.98;;;;;;;3.79;88.83;99394.63;1736469;82;22572;-66
2021/12/08 08:01:25;;;;;;;51.23;20.52;;;;;;;3.81;88.86;99399.28;1673504;83;20978;-69
2021/12/08 08:03:52;;;;;;;55.00;21.00;;;;;;;3.85;88.89;99399.90;1716611;83;21012;-67
2021/12/08 08:06:24;;;;;;;58.23;22.95;;;;;;;3.89;88.91;99408.75;1729804;81;20996;-67
2021/12/08 08:08:52;;;;;;;55.05;23.10;;;;;;;3.93;88.95;99408.06;1742534;81;21049;-68
2021/12/08 08:11:29;;;;;;;48.48;22.25;;;;;;;3.99;88.98;99414.19;1726776;82;21833;-68
2021/12/08 08:13:55;;;;;;;54.27;18.12;;;;;;;4.03;88.99;99407.80;1733001;82;20956;-68
2021/12/08 08:16:26;;;;;;;77.00;17.42;;;;;;;4.06;88.95;99400.25;1718539;82;21014;-69
2021/12/08 08:19:01;;;;;;;60.25;16.42;;;;;;;4.06;88.95;99399.78;1773566;80;20983;-68
2021/12/08 08:21:28;;;;;;;38.73;15.03;;;;;;;4.07;88.91;99398.83;1732232;81;21037;-68
2021/12/08 08:23:55;;;;;;;58.73;16.40;;;;;;;4.09;88.93;99397.42;1755266;80;21834;-68
2021/12/08 08:26:23;;;;;;;36.98;17.57;;;;;;;4.11;88.94;99395.05;1731935;82;21464;-68
2021/12/08 08:28:52;;;;;;;41.83;19.40;;;;;;;4.16;88.96;99394.76;1694246;82;20984;-67
2021/12/08 08:31:24;;;;;;;34.70;18.48;;;;;;;4.19;88.98;99397.16;1719406;81;20976;-68
2021/12/08 08:33:51;;;;;;;35.25;19.70;;;;;;;4.22;88.99;99400.38;1726471;81;21027;-69
2021/12/08 08:36:25;;;;;;;39.85;24.72;;;;;;;4.25;88.97;99404.11;1726248;83;22280;-68
2021/12/08 08:39:00;;;;;;;38.73;23.30;;;;;;;4.30;89.01;99406.39;1733085;82;21028;-68
2021/12/08 08:41:43;;;;;;;47.05;29.92;;;;;;;4.32;89.03;99407.12;1754902;80;20953;-69
2021/12/08 08:44:21;;;;;;;42.53;29.60;;;;;;;4.33;89.00;99410.09;1739301;81;21012;-72
2021/12/08 08:46:48;;;;;;;47.48;30.95;;;;;;;4.34;89.00;99409.14;1726464;83;21020;-71
2021/12/08 08:49:20;;;;;;;46.95;32.48;;;;;;;4.38;89.01;99404.09;1748763;80;21801;-70
2021/12/08 08:52:00;;;;;;;45.95;31.37;;;;;;;4.41;89.00;99393.88;1715979;83;21463;-71
2021/12/08 08:54:28;;;;;;;49.98;31.95;;;;;;;4.40;88.95;99381.28;1745785;82;21447;-71
2021/12/08 08:57:01;;;;;;;57.75;34.67;;;;;;;4.39;88.94;99375.69;1743646;82;21445;-72
2021/12/08 08:59:31;;;;;;;49.13;34.75;;;;;;;4.40;88.93;99377.36;1742150;82;20947;-74
2021/12/08 09:01:58;;;;;;;47.75;33.55;;;;;;;4.43;88.93;99368.45;1732722;82;21827;-71
2021/12/08 09:04:33;;;;;;;46.13;35.45;;;;;;;4.44;88.88;99370.99;1684565;85;21410;-72
2021/12/08 09:07:05;;;;;;;46.53;36.00;;;;;;;4.42;88.80;99368.09;1687765;83;21021;-72
2021/12/08 09:09:39;;;;;;;55.92;37.15;;;;;;;4.39;88.75;99360.00;1714520;83;21052;-70
2021/12/08 09:12:32;;;;;;;68.37;37.75;;;;;;;4.41;88.78;99357.28;1731126;83;27799;-68
2021/12/08 09:15:28;;;;;;;51.23;37.78;;;;;;;4.41;88.77;99338.98;1721273;81;21845;-68
2021/12/08 09:18:02;;;;;;;53.65;37.33;;;;;;;4.42;88.71;99327.09;1716457;82;20996;-68
2021/12/08 09:20:56;;;;;;;51.35;37.75;;;;;;;4.41;88.69;99333.27;1716111;83;20949;-69
2021/12/08 09:23:25;;;;;;;65.70;37.98;;;;;;;4.42;88.62;99352.41;1716009;83;21605;-68
2021/12/08 09:26:08;;;;;;;54.13;37.93;;;;;;;4.39;88.55;99336.48;1716445;83;21036;-68
2021/12/08 09:28:50;;;;;;;49.65;36.55;;;;;;;4.38;88.54;99340.04;1714310;83;21842;-68
2021/12/08 09:31:25;;;;;;;52.10;35.17;;;;;;;4.41;88.57;99334.58;1716085;81;20924;-68
2021/12/08 09:33:59;;;;;;;49.53;35.50;;;;;;;4.43;88.52;99323.54;1712041;83;21515;-68
2021/12/08 09:36:41;;;;;;;52.73;37.60;;;;;;;4.42;88.45;99310.11;1714414;83;20973;-67
2021/12/08 09:39:24;;;;;;;51.98;36.45;;;;;;;4.42;88.38;99317.12;1714544;83;21000;-69
2021/12/08 09:42:07;;;;;;;48.90;35.03;;;;;;;4.43;88.36;99323.54;1713194;83;21829;-68
2021/12/08 09:44:38;;;;;;;57.33;38.08;;;;;;;4.44;88.33;99326.55;1707758;83;21517;-69
2021/12/08 09:47:05;;;;;;;45.88;35.63;;;;;;;4.44;88.27;99326.98;1696148;83;21070;-69
2021/12/08 09:49:33;;;;;;;53.05;37.05;;;;;;;4.43;88.27;99318.31;1719340;81;21044;-70
2021/12/08 09:52:00;;;;;;;49.10;35.33;;;;;;;4.44;88.21;99312.16;1718315;82;20993;-68
2021/12/08 09:54:27;;;;;;;52.30;36.58;;;;;;;4.46;88.17;99313.36;1715347;83;22651;-68
2021/12/08 09:56:54;;;;;;;45.75;34.10;;;;;;;4.45;88.13;99305.16;1703812;83;21491;-68
2021/12/08 09:59:22;;;;;;;53.23;33.85;;;;;;;4.47;88.10;99326.80;1700614;83;21072;-69
2021/12/08 10:01:49;;;;;;;58.20;35.92;;;;;;;4.47;88.05;99322.39;1699861;83;20993;-68
2021/12/08 10:04:15;;;;;;;46.63;32.53;;;;;;;4.47;87.98;99322.87;1700005;83;20958;-69
2021/12/08 10:06:49;;;;;;;43.58;33.55;;;;;;;4.50;87.94;99321.33;1706660;84;39794;-68
2021/12/08 10:09:14;;;;;;;46.45;34.95;;;;;;;4.47;87.84;99318.47;1704288;84;21511;-70
2021/12/08 10:11:41;;;;;;;42.88;32.80;;;;;;;4.45;87.76;99319.06;1708831;83;21565;-70
2021/12/08 10:14:07;;;;;;;42.55;31.68;;;;;;;4.46;87.71;99315.97;1713934;83;20980;-68
2021/12/08 10:16:34;;;;;;;41.95;31.48;;;;;;;4.45;87.67;99319.53;1709125;84;21010;-69
2021/12/08 10:19:00;;;;;;;45.28;31.62;;;;;;;4.46;87.60;99325.13;1707627;83;21790;-68
2021/12/08 10:21:37;;;;;;;43.73;31.48;;;;;;;4.46;87.55;99332.97;1710145;83;21084;-69
2021/12/08 10:24:20;;;;;;;45.52;32.17;;;;;;;4.44;87.48;99326.55;1712006;83;21039;-68
2021/12/08 10:26:48;;;;;;;42.27;29.75;;;;;;;4.44;87.48;99328.30;1715225;83;21032;-68
2021/12/08 10:29:14;;;;;;;45.60;32.85;;;;;;;4.44;87.43;99330.47;1714182;83;21047;-69
2021/12/08 10:31:45;;;;;;;51.58;34.13;;;;;;;4.44;87.41;99326.98;1710118;83;22759;-70
2021/12/08 10:36:55;;;;;;;78.70;37.67;;;;;;;4.47;87.36;99326.31;1714968;83;21516;-69
2021/12/08 10:39:33;;;;;;;62.03;33.53;;;;;;;4.48;87.31;99329.30;1715067;83;21447;-68
2021/12/08 10:42:14;;;;;;;75.50;35.15;;;;;;;4.46;87.25;99331.66;1711593;83;21050;-70
2021/12/08 10:45:11;;;;;;;75.85;35.20;;;;;;;4.47;87.26;99319.78;1705211;83;21720;-68
2021/12/08 10:47:49;;;;;;;52.65;34.15;;;;;;;4.50;87.27;99325.26;1705130;84;21023;-69
2021/12/08 10:56:15;;;;;;;57.27;33.70;;;;;;;4.49;87.15;99317.05;1699059;83;21091;-67
2021/12/08 10:58:47;;;;;;;55.08;34.27;;;;;;;4.49;87.15;99317.89;1638240;85;22488;-68
2021/12/08 11:01:16;;;;;;;56.63;33.18;;;;;;;4.48;87.14;99312.30;1675419;84;21061;-68
2021/12/08 11:03:44;;;;;;;53.87;32.75;;;;;;;4.51;87.15;99312.07;1675801;85;21033;-68
2021/12/08 11:06:15;;;;;;;46.92;31.02;;;;;;;4.54;87.12;99311.03;1689011;85;21067;-68
2021/12/08 11:08:48;;;;;;;48.40;31.25;;;;;;;4.55;87.10;99306.17;1689417;85;21103;-69
2021/12/08 11:11:20;;;;;;;48.50;31.27;;;;;;;4.57;87.09;99313.42;1682214;84;21772;-68
2021/12/08 11:13:49;;;;;;;48.13;30.40;;;;;;;4.58;87.10;99304.16;1700577;83;21122;-68
2021/12/08 11:16:19;;;;;;;41.50;26.85;;;;;;;4.62;87.06;99302.62;1732489;82;21067;-68
2021/12/08 11:18:50;;;;;;;46.77;28.52;;;;;;;4.63;87.06;99301.67;1734327;82;21013;-69
2021/12/08 11:21:21;;;;;;;46.20;27.80;;;;;;;4.62;87.00;99298.22;1704887;82;21047;-68
2021/12/08 11:23:52;;;;;;;49.03;28.80;;;;;;;4.59;86.95;99296.67;1666597;85;21798;-70
2021/12/08 11:26:29;;;;;;;44.48;30.17;;;;;;;4.58;86.90;99305.46;1674352;85;21127;-70
2021/12/08 11:29:01;;;;;;;44.55;29.57;;;;;;;4.58;86.90;99305.46;1673785;85;21017;-70
2021/12/08 11:31:38;;;;;;;49.50;29.95;;;;;;;4.59;86.88;99298.45;1672038;84;21118;-69
2021/12/08 11:34:18;;;;;;;44.93;28.55;;;;;;;4.59;86.88;99300.59;1730048;82;21032;-70
2021/12/08 11:36:45;;;;;;;50.03;30.20;;;;;;;4.58;86.85;99296.31;1732508;82;21840;-73
2021/12/08 11:39:18;;;;;;;48.30;29.05;;;;;;;4.57;86.79;99293.34;1732104;82;21028;-69
2021/12/08 11:41:48;;;;;;;42.05;27.00;;;;;;;4.58;86.84;99291.08;1732619;82;21059;-69
2021/12/08 11:44:24;;;;;;;46.30;28.60;;;;;;;4.62;86.83;99290.84;1714445;82;21028;-69
2021/12/08 11:46:58;;;;;;;47.60;29.35;;;;;;;4.61;86.79;99290.02;1717423;82;21085;-68
2021/12/08 11:49:25;;;;;;;45.10;29.95;;;;;;;4.60;86.80;99293.58;1726795;81;22282;-69
2021/12/08 11:51:59;;;;;;;48.48;31.02;;;;;;;4.62;86.81;99294.77;1688697;85;21063;-70
2021/12/08 11:54:34;;;;;;;46.77;30.25;;;;;;;4.62;86.81;99290.38;1678017;85;21414;-69
2021/12/08 11:57:10;;;;;;;46.85;29.75;;;;;;;4.62;86.79;99290.38;1694668;82;21564;-69
2021/12/08 11:59:48;;;;;;;47.23;29.77;;;;;;;4.63;86.81;99280.75;1711661;83;21031;-70
2021/12/08 12:02:15;;;;;;;49.90;31.48;;;;;;;4.62;86.77;99283.84;1694903;83;21800;-69
2021/12/08 12:04:42;;;;;;;51.68;31.15;;;;;;;4.63;86.80;99285.98;1742741;81;21087;-69
2021/12/08 12:07:13;;;;;;;52.70;30.65;;;;;;;4.64;86.78;99286.37;1754868;81;21465;-68
2021/12/08 12:09:40;;;;;;;51.18;31.70;;;;;;;4.65;86.77;99289.34;1746247;81;21012;-68
2021/12/08 12:12:07;;;;;;;51.63;31.90;;;;;;;4.64;86.74;99286.37;1723175;82;21035;-68
2021/12/08 12:14:34;;;;;;;50.05;31.35;;;;;;;4.63;86.77;99291.20;1707362;83;21812;-67
2021/12/08 12:17:00;;;;;;;56.80;33.28;;;;;;;4.63;86.76;99292.04;1722800;83;21400;-67
2021/12/08 12:19:32;;;;;;;53.58;32.23;;;;;;;4.65;86.77;99286.73;1740809;81;20994;-67
2021/12/08 12:22:25;;;;;;;55.43;33.48;;;;;;;4.66;86.81;99282.69;1744210;80;20988;-67
2021/12/08 12:25:18;;;;;;;53.65;31.97;;;;;;;4.67;86.79;99290.06;1752462;81;21585;-68
2021/12/08 12:28:02;;;;;;;45.03;26.63;;;;;;;4.66;86.79;99280.55;1751898;82;21810;-71